Time;durP1;ratioP1;P1;durP2;ratioP2;P2;SDS_P1;SDS_P2;PMS_P1;PMS_P2;Temp;Humidity;BMP_temperature;BMP_pressure;BME280_temperature;BME280_humidity;BME280_pressure;Samples;Min_cycle;Max_cycle;Signal;HPM_P1;HPM_P2
2023/04/22 00:02:18;;;;;;;;;25.00;23.75;;;;;14.14;41.63;99924.94;5075000;28;45852;-78
2023/04/22 00:04:46;;;;;;;;;24.50;23.00;;;;;14.13;41.22;99924.09;5073803;28;45859;-80
2023/04/22 00:07:13;;;;;;;;;27.50;25.25;;;;;14.11;41.60;99931.31;5078509;28;45629;-81
2023/04/22 00:09:39;;;;;;;;;29.00;27.00;;;;;14.08;41.85;99934.25;5075927;28;45609;-74
2023/04/22 00:12:04;;;;;;;;;27.50;26.00;;;;;14.10;41.72;99940.19;5075469;28;47071;-77
2023/04/22 00:17:52;;;;;;;;;25.50;24.25;;;;;14.07;41.92;99943.13;5074881;28;45528;-78
2023/04/22 00:20:20;;;;;;;;;27.75;25.00;;;;;14.07;41.70;99942.31;5074634;28;46430;-76
2023/04/22 00:22:46;;;;;;;;;27.25;25.00;;;;;14.05;41.87;99936.34;5074635;28;46125;-78
2023/04/22 00:25:11;;;;;;;;;27.00;22.75;;;;;14.05;41.76;99929.28;5074683;28;45701;-77
2023/04/22 00:27:37;;;;;;;;;27.25;23.50;;;;;14.02;41.87;99932.22;5074868;28;45635;-83
2023/04/22 00:30:03;;;;;;;;;21.50;20.50;;;;;14.00;41.65;99928.06;5074613;28;46163;-82
2023/04/22 00:32:29;;;;;;;;;24.50;24.00;;;;;13.94;42.37;99934.75;5074390;28;46135;-81
2023/04/22 00:34:56;;;;;;;;;15.25;15.00;;;;;13.92;41.95;99931.44;5074506;28;45722;-76
2023/04/22 00:37:21;;;;;;;;;23.25;19.75;;;;;13.89;41.75;99926.47;5074970;28;45509;-79
2023/04/22 00:39:47;;;;;;;;;24.00;22.50;;;;;13.87;41.84;99917.91;5056360;28;46685;-83
2023/04/22 00:42:12;;;;;;;;;21.25;20.75;;;;;13.86;42.06;99924.13;5072963;28;46864;-80
2023/04/22 00:48:00;;;;;;;;;22.00;20.25;;;;;13.83;42.04;99937.56;5075353;28;45750;-83
2023/04/22 00:50:26;;;;;;;;;22.25;21.25;;;;;13.80;42.22;99935.25;5076230;28;46230;-79
2023/04/22 00:52:51;;;;;;;;;20.00;18.25;;;;;13.76;42.13;99926.00;5057026;28;48678;-80
2023/04/22 00:55:16;;;;;;;;;18.25;17.50;;;;;13.77;41.73;99925.00;5076488;28;45481;-80
2023/04/22 00:57:42;;;;;;;;;19.00;19.00;;;;;13.75;42.02;99924.31;5075099;28;45653;-75
2023/04/22 01:00:09;;;;;;;;;20.00;18.75;;;;;13.73;42.11;99915.72;5074031;28;45468;-82
2023/04/22 01:02:37;;;;;;;;;18.75;15.75;;;;;13.71;42.20;99912.44;5073921;28;46053;-79
2023/04/22 01:05:03;;;;;;;;;20.75;19.50;;;;;13.69;42.20;99907.31;5074669;28;45741;-78
2023/04/22 01:07:28;;;;;;;;;18.00;17.25;;;;;13.67;41.90;99893.44;5074652;28;45623;-78
2023/04/22 01:09:56;;;;;;;;;23.75;19.50;;;;;13.64;42.43;99891.13;5074317;28;46847;-79
2023/04/22 01:12:21;;;;;;;;;18.00;16.00;;;;;13.63;42.13;99888.63;5074324;28;46193;-78
2023/04/22 01:18:09;;;;;;;;;20.50;18.75;;;;;13.57;42.52;99887.41;5074099;28;45670;-78
2023/04/22 01:20:35;;;;;;;;;23.00;17.00;;;;;13.59;42.39;99879.38;5074342;28;46238;-77
2023/04/22 01:23:05;;;;;;;;;18.00;17.00;;;;;13.58;42.90;99867.19;5074025;28;46071;-79
2023/04/22 01:25:30;;;;;;;;;21.25;20.25;;;;;13.54;42.74;99868.47;5073983;28;45609;-77
2023/04/22 01:27:56;;;;;;;;;21.75;16.00;;;;;13.52;42.86;99865.13;5076366;28;45674;-78
2023/04/22 01:30:21;;;;;;;;;21.25;19.50;;;;;13.52;42.70;99862.50;5056719;28;46314;-83
2023/04/22 01:32:47;;;;;;;;;18.00;17.25;;;;;13.47;42.72;99854.22;5075291;28;46411;-77
2023/04/22 01:35:12;;;;;;;;;18.00;15.00;;;;;13.45;42.74;99862.25;5073996;28;45811;-82
2023/04/22 01:37:38;;;;;;;;;18.25;17.00;;;;;13.49;43.14;99866.28;5074292;28;45805;-83
2023/04/22 01:40:04;;;;;;;;;15.25;15.00;;;;;13.44;42.83;99847.47;5074114;28;45795;-80
2023/04/22 01:42:30;;;;;;;;;21.25;16.75;;;;;13.45;43.29;99854.34;5073844;28;45912;-84
2023/04/22 01:48:18;;;;;;;;;22.25;18.00;;;;;13.48;42.83;99848.81;5074553;28;45654;-83
2023/04/22 01:50:44;;;;;;;;;23.75;16.50;;;;;13.49;42.86;99845.22;5074204;28;45525;-86
2023/04/22 01:53:10;;;;;;;;;20.25;18.50;;;;;13.53;42.94;99845.75;5074350;28;46434;-84
2023/04/22 01:55:37;;;;;;;;;17.25;15.75;;;;;13.53;43.12;99843.94;5074626;28;45623;-81
2023/04/22 01:58:03;;;;;;;;;23.00;20.75;;;;;13.50;42.87;99830.22;5074475;28;45756;-81
2023/04/22 02:03:50;;;;;;;;;16.25;15.25;;;;;13.51;42.98;99814.31;5072968;28;45800;-82
2023/04/22 02:06:16;;;;;;;;;20.25;18.50;;;;;13.51;43.31;99808.22;5076173;28;45686;-82
2023/04/22 02:08:41;;;;;;;;;20.00;17.75;;;;;13.48;43.19;99796.19;5074828;28;45494;-80
2023/04/22 02:11:07;;;;;;;;;19.00;18.75;;;;;13.48;43.53;99800.63;5074547;28;45582;-80
2023/04/22 02:13:39;;;;;;;;;18.00;17.25;;;;;13.43;43.46;99801.91;5077646;28;46041;-76
2023/04/22 02:16:05;;;;;;;;;24.00;19.25;;;;;13.45;43.50;99812.25;5078228;28;45717;-79
2023/04/22 02:18:30;;;;;;;;;18.00;17.00;;;;;13.44;43.45;99819.31;5078532;28;45722;-80
2023/04/22 02:20:55;;;;;;;;;17.00;15.25;;;;;13.46;43.77;99808.66;5076951;28;47587;-82
2023/04/22 02:23:21;;;;;;;;;15.25;14.00;;;;;13.48;43.80;99813.78;5077650;28;45738;-83
2023/04/22 02:25:49;;;;;;;;;18.50;16.50;;;;;13.49;43.74;99815.44;5077792;28;45663;-78
2023/04/22 02:28:14;;;;;;;;;20.75;17.50;;;;;13.47;43.90;99812.13;5077851;28;45673;-81
2023/04/22 02:34:02;;;;;;;;;20.00;17.50;;;;;13.47;44.23;99812.94;5077369;28;46039;-84
2023/04/22 02:36:27;;;;;;;;;20.00;18.75;;;;;13.44;44.59;99816.69;5077644;28;45556;-83
2023/04/22 02:38:53;;;;;;;;;20.00;17.75;;;;;13.41;44.83;99824.88;5079234;28;45705;-81
2023/04/22 02:41:18;;;;;;;;;20.50;17.00;;;;;13.41;45.39;99826.69;5079073;28;46589;-82
2023/04/22 02:43:45;;;;;;;;;22.50;20.25;;;;;13.38;45.23;99819.94;5077377;28;45584;-81
2023/04/22 02:46:12;;;;;;;;;22.25;19.00;;;;;13.33;45.44;99816.06;5077376;28;45485;-80
2023/04/22 02:48:38;;;;;;;;;22.00;20.25;;;;;13.27;45.75;99809.59;5078568;28;45793;-81
2023/04/22 02:51:05;;;;;;;;;21.75;21.00;;;;;13.32;46.01;99817.03;5077928;28;46324;-80
2023/04/22 02:53:30;;;;;;;;;24.50;23.75;;;;;13.29;45.86;99812.88;5076815;28;45588;-82
2023/04/22 02:55:57;;;;;;;;;22.50;20.00;;;;;13.33;46.03;99810.81;5077368;28;45616;-85
2023/04/22 02:58:22;;;;;;;;;23.00;20.25;;;;;13.32;46.30;99811.78;5077871;28;45477;-86
2023/04/22 03:04:11;;;;;;;;;21.25;21.00;;;;;13.36;46.49;99787.66;5075737;27;45691;-82
2023/04/22 03:06:36;;;;;;;;;23.75;22.00;;;;;13.36;47.14;99782.41;5076472;28;46192;-82
2023/04/22 03:09:02;;;;;;;;;29.00;27.50;;;;;13.35;47.47;99782.53;5076452;28;45838;-85
2023/04/22 03:11:27;;;;;;;;;24.25;21.00;;;;;13.33;47.84;99768.72;5076277;28;45608;-83
2023/04/22 03:13:52;;;;;;;;;23.50;22.25;;;;;13.32;47.74;99762.63;5076354;28;46181;-84
2023/04/22 03:19:39;;;;;;;;;26.00;23.75;;;;;13.33;48.38;99759.00;5076353;28;45554;-81
2023/04/22 03:22:05;;;;;;;;;27.00;23.00;;;;;13.28;48.30;99752.56;5076838;28;45695;-85
2023/04/22 03:24:30;;;;;;;;;27.75;24.25;;;;;13.25;49.14;99747.56;5078407;28;45771;-81
2023/04/22 03:26:56;;;;;;;;;27.00;26.50;;;;;13.21;48.87;99741.78;5076039;28;45870;-77
2023/04/22 03:29:21;;;;;;;;;26.75;24.50;;;;;13.20;49.18;99734.03;5074554;28;46035;-77
2023/04/22 03:31:46;;;;;;;;;28.50;27.50;;;;;13.21;49.36;99741.78;5075777;28;46244;-80
2023/04/22 03:34:12;;;;;;;;;24.00;23.50;;;;;13.23;48.81;99742.44;5075833;28;45538;-75
2023/04/22 03:36:37;;;;;;;;;25.50;23.50;;;;;13.23;49.53;99745.06;5075629;28;45513;-80
2023/04/22 03:39:03;;;;;;;;;25.25;23.00;;;;;13.29;49.27;99748.91;5074022;28;45870;-77
2023/04/22 03:41:28;;;;;;;;;24.25;23.00;;;;;13.28;49.35;99745.47;5075633;28;45571;-77
2023/04/22 03:43:53;;;;;;;;;25.50;24.25;;;;;13.33;49.86;99751.09;5075238;28;45588;-79
2023/04/22 03:49:40;;;;;;;;;26.50;24.25;;;;;13.36;49.64;99763.97;5075213;28;45683;-79
2023/04/22 03:52:06;;;;;;;;;27.50;25.25;;;;;13.37;50.20;99749.88;5075398;28;45592;-78
2023/04/22 03:54:31;;;;;;;;;28.75;26.25;;;;;13.35;49.79;99736.00;5075363;28;45907;-76
2023/04/22 03:56:57;;;;;;;;;27.25;24.25;;;;;13.35;50.13;99735.19;5075528;28;45521;-77
2023/04/22 03:59:22;;;;;;;;;27.00;25.00;;;;;13.32;50.09;99728.44;5075431;28;45497;-78
2023/04/22 04:05:10;;;;;;;;;28.50;24.25;;;;;13.32;50.24;99731.06;5076301;28;45878;-80
2023/04/22 04:07:35;;;;;;;;;23.75;23.50;;;;;13.25;50.40;99744.94;5057964;28;45583;-74
2023/04/22 04:10:01;;;;;;;;;28.00;23.75;;;;;13.20;50.75;99745.38;5057372;28;45631;-79
2023/04/22 04:12:26;;;;;;;;;23.00;22.00;;;;;13.19;50.47;99740.25;5076376;28;45548;-79
2023/04/22 04:14:51;;;;;;;;;28.00;23.00;;;;;13.22;50.39;99719.78;5075433;28;45596;-84
2023/04/22 04:17:17;;;;;;;;;29.75;24.25;;;;;13.28;50.74;99721.00;5076694;28;45589;-82
2023/04/22 04:19:42;;;;;;;;;28.50;24.25;;;;;13.29;50.69;99684.00;5078052;28;45512;-81
2023/04/22 04:22:09;;;;;;;;;30.25;26.75;;;;;13.33;50.53;99658.22;5075768;28;46205;-80
2023/04/22 04:24:35;;;;;;;;;25.25;23.00;;;;;13.37;51.15;99657.78;5074972;28;47394;-80
2023/04/22 04:27:01;;;;;;;;;24.00;22.75;;;;;13.36;50.88;99656.13;5075825;28;45969;-81
2023/04/22 04:29:27;;;;;;;;;24.75;24.00;;;;;13.35;51.29;99659.72;5076218;28;45769;-84
2023/04/22 04:35:15;;;;;;;;;28.50;24.75;;;;;13.30;51.82;99703.22;5075080;28;45714;-85
2023/04/22 04:37:43;;;;;;;;;31.00;27.50;;;;;13.25;51.61;99719.47;5075652;28;45682;-82
2023/04/22 04:40:12;;;;;;;;;29.25;23.00;;;;;13.24;52.02;99716.97;5076063;28;45662;-86
2023/04/22 04:42:38;;;;;;;;;29.00;27.25;;;;;13.23;52.34;99703.00;5076323;28;45702;-79
2023/04/22 04:45:03;;;;;;;;;28.00;24.25;;;;;13.22;52.19;99692.63;5077117;28;46346;-82
2023/04/22 04:47:32;;;;;;;;;28.75;24.75;;;;;13.24;52.63;99678.34;5081226;28;45610;-81
2023/04/22 04:49:59;;;;;;;;;30.00;24.75;;;;;13.26;52.84;99680.84;5077127;28;45608;-81
2023/04/22 04:52:24;;;;;;;;;33.25;27.50;;;;;13.22;53.44;99675.06;5076964;28;45728;-81
2023/04/22 04:54:49;;;;;;;;;32.00;28.25;;;;;13.17;54.03;99674.66;5076765;28;45618;-84
2023/04/22 04:57:16;;;;;;;;;26.25;24.00;;;;;13.17;54.46;99658.88;5077674;28;45687;-81
2023/04/22 04:59:41;;;;;;;;;29.00;24.75;;;;;13.12;54.44;99645.34;5077139;28;45696;-77
2023/04/22 05:05:29;;;;;;;;;35.75;30.25;;;;;13.03;55.84;99649.66;5074754;28;45702;-82
2023/04/22 05:07:54;;;;;;;;;33.00;29.25;;;;;13.01;55.50;99650.78;5075131;28;45763;-83
2023/04/22 05:10:20;;;;;;;;;32.00;27.50;;;;;12.99;55.77;99637.81;5074448;28;45813;-84
2023/04/22 05:12:46;;;;;;;;;28.75;25.75;;;;;13.01;55.45;99643.72;5074455;28;45659;-83
2023/04/22 05:15:12;;;;;;;;;35.75;29.00;;;;;12.99;55.97;99666.72;5074243;28;46157;-80
2023/04/22 05:20:59;;;;;;;;;27.00;24.25;;;;;13.05;56.49;99691.59;5074103;28;45592;-81
2023/04/22 05:23:25;;;;;;;;;34.25;30.00;;;;;13.07;56.94;99694.88;5073916;28;46840;-76
2023/04/22 05:25:51;;;;;;;;;30.00;28.00;;;;;13.09;56.30;99695.59;5074396;28;45635;-82
2023/04/22 05:28:16;;;;;;;;;33.25;29.25;;;;;13.10;56.64;99676.19;5074690;28;45565;-83
2023/04/22 05:30:42;;;;;;;;;34.50;28.00;;;;;13.10;57.42;99673.56;5074768;28;45796;-83
2023/04/22 05:33:07;;;;;;;;;31.50;28.25;;;;;13.06;57.34;99679.28;5074100;28;45509;-80
2023/04/22 05:35:34;;;;;;;;;36.75;31.50;;;;;12.98;57.42;99701.03;5074273;28;45571;-80
2023/04/22 05:38:01;;;;;;;;;34.00;31.25;;;;;12.92;58.13;99710.34;5074754;28;45466;-84
2023/04/22 05:40:27;;;;;;;;;33.00;28.25;;;;;12.93;57.39;99738.28;5075030;28;45577;-84
2023/04/22 05:42:52;;;;;;;;;35.00;32.50;;;;;12.98;58.28;99753.63;5074464;28;46518;-84
2023/04/22 05:45:18;;;;;;;;;35.50;31.00;;;;;12.99;58.18;99761.38;5075286;28;45789;-80
2023/04/22 05:51:05;;;;;;;;;37.00;33.50;;;;;13.07;58.59;99734.34;5077869;28;45534;-87
2023/04/22 05:53:30;;;;;;;;;39.75;34.50;;;;;13.12;58.68;99705.81;5080630;28;46279;-86
2023/04/22 05:55:56;;;;;;;;;42.75;34.00;;;;;13.14;58.88;99689.91;5079270;28;45629;-87
2023/04/22 05:58:21;;;;;;;;;37.75;33.50;;;;;13.15;58.80;99702.09;5079995;28;45649;-86
2023/04/22 06:00:46;;;;;;;;;30.75;28.50;;;;;13.17;58.81;99706.22;5081921;28;45660;-87
2023/04/22 06:06:33;;;;;;;;;32.25;30.50;;;;;13.23;59.15;99717.94;5074666;27;46253;-81
2023/04/22 06:08:59;;;;;;;;;29.50;27.25;;;;;13.23;59.54;99733.72;5076984;28;45630;-78
2023/04/22 06:11:24;;;;;;;;;33.25;28.00;;;;;13.24;59.16;99727.50;5075715;28;45767;-74
2023/04/22 06:13:50;;;;;;;;;35.50;34.00;;;;;13.25;59.42;99727.34;5077108;28;45516;-77
2023/04/22 06:16:15;;;;;;;;;31.25;29.50;;;;;13.18;59.52;99728.91;5076730;28;45584;-76
2023/04/22 06:18:42;;;;;;;;;34.25;32.00;;;;;13.19;59.48;99721.84;5076840;28;45534;-78
2023/04/22 06:21:07;;;;;;;;;31.50;27.00;;;;;13.20;59.92;99711.19;5076821;28;45522;-78
2023/04/22 06:23:33;;;;;;;;;35.50;27.50;;;;;13.23;59.34;99720.56;5076524;28;45789;-78
2023/04/22 06:26:00;;;;;;;;;32.00;27.75;;;;;13.26;59.79;99730.81;5076466;28;45666;-78
2023/04/22 06:28:26;;;;;;;;;37.25;33.25;;;;;13.27;59.88;99724.59;5076698;28;45620;-76
2023/04/22 06:30:51;;;;;;;;;35.25;32.00;;;;;13.28;59.93;99729.69;5076671;28;45502;-76
2023/04/22 06:36:38;;;;;;;;;34.50;32.25;;;;;13.30;60.42;99738.25;5076384;28;45648;-79
2023/04/22 06:39:04;;;;;;;;;36.50;31.75;;;;;13.30;60.26;99738.25;5076620;28;45776;-77
2023/04/22 06:41:31;;;;;;;;;33.75;29.25;;;;;13.29;60.49;99731.34;5074926;28;45964;-76
2023/04/22 06:43:57;;;;;;;;;34.25;31.25;;;;;13.32;60.28;99733.69;5076210;28;46499;-79
2023/04/22 06:46:22;;;;;;;;;34.75;30.50;;;;;13.36;60.56;99734.22;5076332;28;45625;-76
2023/04/22 06:52:09;;;;;;;;;33.00;30.75;;;;;13.37;60.69;99726.19;5075679;28;45715;-76
2023/04/22 06:54:34;;;;;;;;;30.00;28.75;;;;;13.38;60.36;99725.22;5075682;28;46339;-77
2023/04/22 06:57:00;;;;;;;;;35.25;28.25;;;;;13.40;60.70;99717.16;5074943;28;46305;-76
2023/04/22 06:59:25;;;;;;;;;29.75;28.75;;;;;13.37;61.04;99720.91;5075270;28;45657;-73
2023/04/22 07:01:51;;;;;;;;;30.50;27.75;;;;;13.37;60.66;99718.28;5076071;28;45767;-76
2023/04/22 07:04:16;;;;;;;;;33.25;28.25;;;;;13.37;60.78;99717.47;5075753;28;46251;-77
2023/04/22 07:06:43;;;;;;;;;33.00;29.75;;;;;13.37;60.58;99705.13;5075469;28;47230;-75
2023/04/22 07:09:08;;;;;;;;;23.00;22.00;;;;;13.35;61.03;99709.69;5075653;28;45489;-76
2023/04/22 07:11:33;;;;;;;;;31.50;28.75;;;;;13.34;61.28;99705.41;5076275;28;45612;-75
2023/04/22 07:13:59;;;;;;;;;41.25;34.75;;;;;13.37;61.04;99715.66;5075249;28;46701;-76
2023/04/22 07:16:25;;;;;;;;;33.25;28.50;;;;;13.40;61.50;99717.97;5075558;28;46347;-75
2023/04/22 07:22:12;;;;;;;;;29.00;27.25;;;;;13.44;61.59;99708.81;5075867;28;45657;-75
2023/04/22 07:24:38;;;;;;;;;38.00;29.25;;;;;13.46;61.63;99713.94;5074884;28;47003;-74
2023/04/22 07:27:04;;;;;;;;;35.50;30.50;;;;;13.50;61.83;99719.72;5074399;28;47178;-76
2023/04/22 07:29:29;;;;;;;;;30.75;27.00;;;;;13.52;61.71;99718.59;5075040;28;45691;-77
2023/04/22 07:31:55;;;;;;;;;32.50;30.50;;;;;13.56;61.49;99727.00;5075176;28;45510;-76
2023/04/22 07:37:42;;;;;;;;;30.25;28.75;;;;;13.62;61.82;99721.97;5074766;28;45725;-77
2023/04/22 07:40:10;;;;;;;;;29.75;27.25;;;;;13.65;61.96;99713.81;5075105;28;45509;-77
2023/04/22 07:42:37;;;;;;;;;28.00;24.75;;;;;13.68;62.11;99718.75;5075461;28;45675;-78
2023/04/22 07:45:03;;;;;;;;;34.50;29.25;;;;;13.66;62.19;99710.16;5074905;28;46637;-78
2023/04/22 07:47:28;;;;;;;;;36.25;33.75;;;;;13.68;62.32;99713.47;5056422;28;47533;-78
2023/04/22 07:49:54;;;;;;;;;29.75;29.25;;;;;13.68;62.37;99702.13;5075276;28;45868;-76
2023/04/22 07:52:19;;;;;;;;;32.50;28.00;;;;;13.69;61.93;99709.06;5074866;28;45527;-76
2023/04/22 07:54:45;;;;;;;;;35.00;31.00;;;;;13.71;62.33;99707.09;5074479;28;47425;-78
2023/04/22 07:57:10;;;;;;;;;25.50;23.50;;;;;13.72;62.72;99714.81;5074037;28;47028;-77
2023/04/22 07:59:35;;;;;;;;;35.75;30.25;;;;;13.75;63.06;99716.34;5073124;28;45963;-79
2023/04/22 08:02:01;;;;;;;;;31.50;28.50;;;;;13.73;62.71;99703.31;5074643;28;45716;-78
2023/04/22 08:07:48;;;;;;;;;31.25;25.25;;;;;13.72;62.91;99701.66;5072881;28;45756;-78
2023/04/22 08:10:13;;;;;;;;;31.75;28.75;;;;;13.76;62.66;99710.94;5074046;28;45594;-79
2023/04/22 08:12:39;;;;;;;;;33.50;31.50;;;;;13.81;63.18;99707.84;5075024;28;45787;-79
2023/04/22 08:15:05;;;;;;;;;31.50;28.25;;;;;13.82;63.25;99712.09;5074862;28;46982;-77
2023/04/22 08:17:30;;;;;;;;;26.75;25.75;;;;;13.85;62.95;99704.75;5075004;28;47020;-79
2023/04/22 08:23:17;;;;;;;;;29.25;26.25;;;;;13.95;62.77;99722.25;5074792;28;45665;-78
2023/04/22 08:25:43;;;;;;;;;29.25;27.75;;;;;13.98;63.63;99714.88;5074417;28;47246;-77
2023/04/22 08:28:08;;;;;;;;;27.50;24.00;;;;;13.98;63.24;99725.41;5074515;28;45995;-78
2023/04/22 08:30:33;;;;;;;;;29.50;25.25;;;;;14.00;63.50;99725.25;5074350;28;45600;-77
2023/04/22 08:32:59;;;;;;;;;29.50;25.00;;;;;14.03;63.69;99733.72;5074410;28;46467;-79
2023/04/22 08:35:24;;;;;;;;;30.25;26.75;;;;;14.06;63.24;99728.13;5074279;28;46407;-77
2023/04/22 08:37:50;;;;;;;;;25.25;23.50;;;;;14.08;63.75;99723.53;5074311;28;47353;-74
2023/04/22 08:40:15;;;;;;;;;29.50;26.50;;;;;14.10;63.80;99724.19;5074522;28;45647;-80
2023/04/22 08:42:42;;;;;;;;;25.50;24.25;;;;;14.14;64.19;99724.75;5074642;28;45749;-78
2023/04/22 08:45:08;;;;;;;;;24.25;22.50;;;;;14.16;64.04;99735.94;5078129;28;46375;-80
2023/04/22 08:47:37;;;;;;;;;24.50;22.50;;;;;14.19;64.02;99733.84;5081431;28;46076;-78
2023/04/22 08:53:24;;;;;;;;;23.00;20.75;;;;;14.21;64.26;99737.13;5076916;28;45468;-78
2023/04/22 08:55:50;;;;;;;;;22.50;20.75;;;;;14.22;64.43;99740.59;5074008;28;46844;-78
2023/04/22 08:58:15;;;;;;;;;25.50;21.25;;;;;14.26;64.95;99740.13;5056011;28;46163;-76
2023/04/22 09:00:42;;;;;;;;;22.25;20.75;;;;;14.28;65.05;99746.06;5076029;28;45684;-75
2023/04/22 09:03:09;;;;;;;;;20.50;20.00;;;;;14.30;65.30;99746.72;5074593;28;45605;-77
2023/04/22 09:08:57;;;;;;;;;23.25;20.75;;;;;14.33;65.21;99739.50;5071748;28;45688;-77
2023/04/22 09:11:25;;;;;;;;;25.25;23.50;;;;;14.35;65.85;99745.47;5055679;28;46155;-78
2023/04/22 09:13:53;;;;;;;;;24.75;20.75;;;;;14.33;65.60;99750.06;5073822;28;45965;-80
2023/04/22 09:16:18;;;;;;;;;24.25;19.25;;;;;14.32;65.99;99751.84;5073903;28;46822;-75
2023/04/22 09:18:46;;;;;;;;;21.00;20.00;;;;;14.35;66.08;99748.09;5073588;28;46632;-77
2023/04/22 09:21:12;;;;;;;;;25.50;24.00;;;;;14.37;66.50;99754.06;5073561;28;45810;-79
2023/04/22 09:23:51;;;;;;;;;22.75;20.00;;;;;14.38;66.28;99755.72;5073903;28;45782;-77
2023/04/22 09:26:23;;;;;;;;;22.25;22.25;;;;;14.42;66.76;99752.59;5073867;28;46386;-77
2023/04/22 09:28:57;;;;;;;;;21.00;20.00;;;;;14.35;66.93;99758.63;5073588;28;46150;-79
2023/04/22 09:31:24;;;;;;;;;23.50;18.50;;;;;14.33;67.18;99764.06;5073308;28;45687;-82
2023/04/22 09:33:59;;;;;;;;;22.75;19.75;;;;;14.25;67.23;99762.19;5073477;28;45822;-79
2023/04/22 09:36:26;;;;;;;;;20.00;17.75;;;;;14.20;67.47;99769.72;5073776;28;46609;-76
2023/04/22 09:38:58;;;;;;;;;12.50;12.00;;;;;14.18;67.86;99771.69;5073565;28;46124;-79
2023/04/22 09:41:28;;;;;;;;;16.00;15.00;;;;;14.22;67.88;99780.94;5073348;28;45732;-80
2023/04/22 09:43:57;;;;;;;;;15.00;14.00;;;;;14.21;67.93;99787.19;5073459;28;45665;-78
2023/04/22 09:46:24;;;;;;;;;14.50;12.75;;;;;14.18;68.05;99786.66;5055128;28;48291;-75
2023/04/22 09:48:52;;;;;;;;;12.50;10.50;;;;;14.13;68.61;99799.47;5073671;28;46062;-75
2023/04/22 09:51:18;;;;;;;;;14.75;12.25;;;;;14.07;68.65;99800.91;5073316;28;45907;-79
2023/04/22 09:53:44;;;;;;;;;14.50;12.50;;;;;14.03;68.59;99796.91;5073266;28;45640;-80
2023/04/22 09:56:09;;;;;;;;;13.50;13.00;;;;;14.07;68.92;99807.97;5072003;28;47455;-76
2023/04/22 09:58:38;;;;;;;;;16.00;14.50;;;;;14.04;68.91;99824.88;5073586;28;45624;-79
2023/04/22 10:01:04;;;;;;;;;11.00;11.00;;;;;13.97;68.84;99815.13;5055683;28;45733;-80
2023/04/22 10:03:33;;;;;;;;;12.50;12.00;;;;;13.95;69.11;99831.06;5073988;28;45601;-74
2023/04/22 10:09:22;;;;;;;;;12.75;11.75;;;;;13.90;69.58;99828.06;5073934;28;46200;-79
2023/04/22 10:11:50;;;;;;;;;16.00;13.50;;;;;13.90;69.59;99835.13;5074857;28;45796;-79
2023/04/22 10:14:16;;;;;;;;;11.00;10.00;;;;;13.88;69.08;99827.38;5059070;28;45895;-88
2023/04/22 10:16:44;;;;;;;;;13.50;11.00;;;;;13.88;69.16;99820.28;5079245;28;46650;-77
2023/04/22 10:25:38;;;;;;;;;12.00;11.75;;;;;13.82;69.68;99839.31;5075651;28;45587;-79
2023/04/22 10:28:09;;;;;;;;;16.00;14.75;;;;;13.78;69.39;99824.81;5076437;28;46417;-77
2023/04/22 10:30:37;;;;;;;;;16.00;15.00;;;;;13.76;69.31;99828.56;5081868;28;45516;-85
2023/04/22 10:33:22;;;;;;;;;15.50;12.25;;;;;13.79;69.83;99841.44;5059985;28;45664;-81
2023/04/22 10:36:14;;;;;;;;;14.00;14.00;;;;;13.78;69.32;99843.22;5077431;28;45890;-87
2023/04/22 10:39:01;;;;;;;;;15.50;15.25;;;;;13.66;68.87;99847.03;5076370;28;46977;-80
2023/04/22 10:41:34;;;;;;;;;12.75;12.00;;;;;13.60;69.38;99844.19;5081269;27;46291;-85
2023/04/22 10:44:04;;;;;;;;;17.00;15.75;;;;;13.67;69.43;99845.22;5069177;28;45803;-79
2023/04/22 10:46:44;;;;;;;;;15.50;14.50;;;;;13.74;69.25;99849.78;5089594;28;45801;-79
2023/04/22 10:49:17;;;;;;;;;12.50;11.50;;;;;13.80;68.58;99858.88;5082793;28;45508;-78
2023/04/22 10:52:02;;;;;;;;;15.50;14.25;;;;;13.85;68.42;99867.16;5059589;28;46128;-73
2023/04/22 10:54:28;;;;;;;;;14.75;13.75;;;;;13.83;68.12;99869.09;5077451;28;45580;-81
2023/04/22 10:57:03;;;;;;;;;12.00;11.75;;;;;13.84;68.68;99873.41;5078814;28;45505;-83
2023/04/22 10:59:30;;;;;;;;;16.00;14.50;;;;;13.92;68.31;99872.69;5079570;28;45476;-79
2023/04/22 11:02:06;;;;;;;;;12.00;11.00;;;;;13.99;68.19;99881.63;5078445;28;45996;-83
2023/04/22 11:04:31;;;;;;;;;13.75;13.75;;;;;13.96;68.31;99885.41;5077802;28;45574;-80
2023/04/22 11:07:28;;;;;;;;;12.00;9.75;;;;;13.94;67.97;99891.78;5077273;28;45665;-90
2023/04/22 11:10:00;;;;;;;;;16.00;14.75;;;;;13.92;68.31;99904.28;5080224;28;46519;-86
2023/04/22 11:12:34;;;;;;;;;10.25;8.50;;;;;13.86;67.70;99909.16;5079457;28;45543;-79
2023/04/22 11:15:12;;;;;;;;;16.50;15.75;;;;;13.70;67.61;99905.50;5080977;28;45468;-80
2023/04/22 11:17:40;;;;;;;;;17.75;15.75;;;;;13.59;67.75;99911.78;5078680;28;45798;-84
2023/04/22 11:23:27;;;;;;;;;23.00;20.50;;;;;13.33;68.40;99916.84;5075820;28;45605;-74
2023/04/22 11:25:57;;;;;;;;;16.75;15.25;;;;;13.31;68.51;99926.72;5060462;28;45709;-82
2023/04/22 11:28:23;;;;;;;;;18.75;17.75;;;;;13.32;68.54;99924.91;5080578;28;45765;-82
2023/04/22 11:30:49;;;;;;;;;17.00;16.00;;;;;13.37;68.71;99925.31;5078229;28;46702;-74
2023/04/22 11:33:17;;;;;;;;;16.25;16.25;;;;;13.41;68.15;99934.56;5079296;28;46671;-84
2023/04/22 11:39:07;;;;;;;;;16.25;15.00;;;;;13.58;68.27;99944.34;5077829;28;45598;-77
2023/04/22 11:41:33;;;;;;;;;19.00;18.25;;;;;13.71;67.80;99941.41;5076702;28;46922;-83
2023/04/22 11:43:59;;;;;;;;;16.50;15.75;;;;;13.80;67.36;99943.97;5075922;28;47127;-76
2023/04/22 11:46:29;;;;;;;;;21.25;17.75;;;;;13.93;67.64;99948.88;5075482;28;45613;-79
2023/04/22 11:49:13;;;;;;;;;20.00;17.75;;;;;13.98;67.08;99948.47;5076103;28;45647;-75
2023/04/22 11:55:00;;;;;;;;;19.75;17.00;;;;;14.05;66.93;99955.63;5077509;28;46280;-82
2023/04/22 11:57:26;;;;;;;;;18.50;17.25;;;;;14.14;66.74;99962.63;5058975;28;45932;-82
2023/04/22 12:00:00;;;;;;;;;18.75;16.00;;;;;14.13;66.64;99950.47;5076739;28;45676;-88
2023/04/22 12:02:25;;;;;;;;;19.25;18.00;;;;;14.07;66.60;99961.56;5078795;28;47360;-81
2023/04/22 12:04:51;;;;;;;;;20.25;18.25;;;;;14.15;67.14;99966.09;5078628;28;47085;-80
2023/04/22 12:10:45;;;;;;;;;20.00;18.00;;;;;14.29;66.16;99974.34;5076233;27;45832;-87
2023/04/22 12:13:33;;;;;;;;;20.50;18.50;;;;;14.43;65.76;99980.94;5057145;28;47334;-79
2023/04/22 12:16:00;;;;;;;;;23.50;19.50;;;;;14.48;66.08;99983.94;5074916;28;46176;-76
2023/04/22 12:18:30;;;;;;;;;16.75;14.75;;;;;14.52;65.23;99987.13;5074781;28;45772;-76
2023/04/22 12:21:05;;;;;;;;;19.00;18.00;;;;;14.52;65.09;99995.84;5074757;28;45630;-73
2023/04/22 12:23:43;;;;;;;;;19.00;17.75;;;;;14.45;65.17;99997.44;5074566;28;46441;-78
2023/04/22 12:26:09;;;;;;;;;23.50;21.50;;;;;14.38;65.61;100001.63;5074309;28;46642;-77
2023/04/22 12:28:36;;;;;;;;;23.50;20.75;;;;;14.39;65.88;99994.56;5074114;28;45707;-74
2023/04/22 12:31:02;;;;;;;;;24.00;21.00;;;;;14.45;66.04;99993.97;5074146;28;45729;-73
2023/04/22 12:33:27;;;;;;;;;24.75;23.25;;;;;14.53;65.56;99988.75;5073895;28;46505;-74
2023/04/22 12:35:53;;;;;;;;;20.00;20.00;;;;;14.56;65.90;99983.22;5074124;28;46120;-72
2023/04/22 12:41:40;;;;;;;;;22.75;21.00;;;;;14.75;65.22;99993.59;5074779;28;45790;-79
2023/04/22 12:44:07;;;;;;;;;26.50;20.00;;;;;14.84;65.35;99999.78;5074377;28;46336;-81
2023/04/22 12:46:32;;;;;;;;;29.25;22.75;;;;;14.91;64.84;99996.38;5074997;28;46216;-85
2023/04/22 12:48:58;;;;;;;;;20.00;18.75;;;;;14.95;64.78;100003.00;5076216;28;45498;-82
2023/04/22 12:51:23;;;;;;;;;25.00;23.00;;;;;15.02;64.76;100006.69;5075378;28;45583;-85
2023/04/22 12:53:48;;;;;;;;;22.50;20.75;;;;;15.12;64.61;100006.59;5077578;28;45562;-81
2023/04/22 12:56:14;;;;;;;;;23.75;21.25;;;;;15.20;64.31;100005.84;5059924;28;47252;-86
2023/04/22 12:58:39;;;;;;;;;20.25;16.75;;;;;15.29;64.00;100007.56;5077377;28;45525;-84
2023/04/22 13:01:05;;;;;;;;;21.50;17.25;;;;;15.39;63.49;100008.28;5079508;28;45492;-82